Hervé Chauve-Laffay

Hervé Chauve-Laffay

Statistiques 2026

  • Courses courues : 14
  • Nb de victoires : 1
  • Nb de places : 1
  • Écart gagnant : 12
  • Réussite à la gagne : 7%
  • Réussite à la place : 7%
Musique : 0a Da 7a Da 4a 4a 6a 9a Da 0a 0a 5a 1a 5a 8a (25) Da 2a 2a
DateRangCatégorieAlloc.Dist.HippodromeChevalRed. KmSpé.
06/10/14 7 Trot 32 000€ 3 525m Feurs Ringen de Genetine 1'15"8 Attelé lire

Très vite dans le dos des animateurs, a fait illusion dans le tournant final, puis a faibli progressivement ensuite.

12/10/14 2 Mixte 12 000€ 2 100m Lyon Parilly Caly Loulou 1'19"5 Attelé
13/10/14 0 Trot 20 000€ 2 625m Cavaillon Titan d'Abo Attelé
15/10/14 0 Trot 90 000€ 2 825m Lyon Parilly Ringen de Genetine Attelé lire

N'a pu que figurer dans la deuxième partie du peloton.

15/10/14 4 Trot 30 000€ 2 825m Lyon Parilly Brume de Genetine 1'18"5 Attelé lire

Très vite à la pointe du combat, a su bien se défendre pour finir, tout en étant dominée par le trio de tête.

15/10/14 0 Trot 30 000€ 2 850m Lyon Parilly Saxo des Gires Attelé lire

Après avoir figuré au sein du peloton, a vainement tenté de changer de rythme dans la phase finale.

15/10/14 0 Trot 25 000€ 2 850m Lyon Parilly Atlas de la Vallee Attelé lire

Vite aux premiers rangs, a complètement lâché prise dans la phase finale.

19/10/14 2 Mixte 18 000€ 2 875m Lyon Parilly Upsalin des Baults 1'16"4 Attelé
19/10/14 3 Mixte 30 000€ 2 850m Lyon Parilly Ariane de Caponet 1'15"2 Attelé
22/10/14 D Trot 11 000€ 2 400m Marseille Borely Big Boss Attelé
22/10/14 7 Trot 15 000€ 3 025m Marseille Borely Vanina Loulou 1'18"6 Attelé
26/10/14 4 Mixte 30 000€ 2 825m Lyon Parilly Brume de Genetine 1'18"7 Attelé
26/10/14 5 Mixte 15 000€ 2 850m Lyon Parilly Akemi 1'18"4 Attelé
30/10/14 2 Trot 13 000€ 2 050m Lyon La Soie Caly Loulou 1'18"1 Attelé
30/10/14 0 Trot 18 000€ 2 725m Lyon La Soie Vega Mesloise Attelé
01/11/14 2 Mixte 25 000€ 2 600m Lyon Parilly Titan d'Abo 1'15"1 Attelé
01/11/14 9 Mixte 21 000€ 2 000m Lyon Parilly Vanina Loulou 1'17"0 Attelé
02/11/14 5 Trot 30 000€ 3 475m Lignieres Ringen de Genetine 1'17"2 Attelé
05/11/14 3 Trot 13 000€ 3 000m Marseille Borely Big Boss Attelé
05/11/14 2 Trot 22 000€ 3 025m Marseille Borely Ariane de Caponet 1'14"9 Attelé
10/11/14 D Trot 20 000€ 2 725m Lyon La Soie Vanina Loulou Attelé
11/11/14 D Trot 19 000€ 2 725m Lyon La Soie Atlas de la Vallee Attelé
16/11/14 5 Mixte 20 000€ 2 000m Lyon Parilly Upsalin des Baults 1'15"0 Attelé
18/11/14 5 Trot 30 000€ 2 850m Lyon Parilly Brume de Genetine 1'18"2 Attelé
18/11/14 6 Trot 40 000€ 2 875m Lyon Parilly Ariane de Caponet 1'15"8 Attelé
18/11/14 D Trot 40 000€ 2 850m Lyon Parilly Titan d'Abo Attelé
19/11/14 1 Mixte 11 000€ 2 400m Marseille Borely Big Boss 1'17"1 Attelé
30/11/14 5 Trot 16 000€ 2 875m Lyon Parilly Atlas de la Vallee 1'17"7 Attelé
03/12/14 5 Trot 11 000€ 2 300m Marseille Borely Chouchou Loulou 1'20"5 Attelé
03/12/14 2 Trot 13 000€ 2 425m Marseille Borely Big Boss 1'17"7 Attelé
03/12/14 2 Trot 16 000€ 3 025m Marseille Borely Upsalin des Baults 1'16"4 Attelé
14/12/14 5 Trot 12 000€ 2 850m Lyon Parilly Best Of Loulou 1'19"9 Attelé
14/12/14 7 Trot 15 000€ 2 875m Lyon Parilly Vanina Loulou 1'17"7 Attelé
04/01/15 3 Trot 13 000€ 2 675m Saint Galmier Atlas de la Vallee 1'17"8 Attelé
11/01/15 1 Trot 16 000€ 2 725m Lyon La Soie Big Boss 1'17"6 Attelé
11/01/15 3 Trot 20 000€ 2 725m Lyon La Soie Ariane de Caponet 1'16"0 Attelé
25/01/15 0 Trot 24 000€ 2 000m Saint Galmier Tchao Tempo Attelé
01/02/15 5 Trot 12 000€ 2 050m Lyon La Soie Beautiful Loulou 1'24"6 Attelé
01/02/15 1 Trot 16 000€ 2 725m Lyon La Soie Big Boss 1'18"3 Attelé
07/02/15 1 Trot 15 000€ 2 675m Saint Galmier Atlas de la Vallee 1'18"2 Attelé
07/02/15 0 Trot 30 000€ 2 650m Saint Galmier Tchao Tempo Attelé
15/02/15 4 Mixte 24 000€ 2 700m Lyon La Soie Vanina Loulou 1'17"7 Attelé
18/02/15 9 Trot 22 000€ 2 675m Saint Galmier Brume de Genetine 1'18"0 Attelé
20/02/15 6 Trot 23 000€ 2 950m Cagnes Sur Mer Atlas de la Vallee 1'16"0 Attelé
01/03/15 3 Trot 13 000€ 2 850m Feurs Boccador 1'18"7 Attelé
01/03/15 1 Trot 22 000€ 2 875m Feurs Ariane de Caponet 1'16"4 Attelé
02/03/15 8 Trot 26 000€ 2 675m Saint Galmier Tchao Tempo 1'16"3 Attelé lire

A rapidement rendu son handicap initial, mais a été nettement dominé dans la phase finale.

09/03/15 D Trot 14 000€ 2 600m Chatillon Boccador Attelé
09/03/15 3 Trot 11 000€ 2 675m Chatillon Best Of Loulou 1'21"1 Attelé
12/03/15 4 Trot 22 000€ 2 850m Lyon Parilly Caly Loulou 1'19"5 Attelé